createdAt,value
2019-02-27T00:00:11.429Z,10.03
2019-02-27T00:02:38.743Z,8.10
2019-02-27T00:05:08.375Z,7.60
2019-02-27T00:07:34.651Z,9.63
2019-02-27T00:19:31.130Z,6.03
2019-02-27T00:21:56.350Z,7.17
2019-02-27T00:24:22.876Z,10.93
2019-02-27T00:26:49.470Z,8.33
2019-02-27T00:29:16.195Z,9.90
2019-02-27T00:31:45.203Z,10.30
2019-02-27T00:34:12.116Z,7.67
2019-02-27T00:36:38.588Z,9.33
2019-02-27T00:39:05.273Z,10.83
2019-02-27T00:41:31.777Z,16.63
2019-02-27T00:44:01.044Z,8.33
2019-02-27T00:46:27.347Z,9.07
2019-02-27T00:48:53.958Z,9.17
2019-02-27T00:51:20.442Z,10.77
2019-02-27T00:53:46.995Z,10.67
2019-02-27T00:56:13.496Z,7.70
2019-02-27T00:58:39.969Z,9.63
2019-02-27T01:01:06.786Z,8.67
2019-02-27T01:03:35.455Z,9.23
2019-02-27T01:06:02.368Z,10.03
2019-02-27T01:08:29.243Z,9.03
2019-02-27T01:10:55.914Z,10.23
2019-02-27T01:13:39.869Z,10.87
2019-02-27T01:16:06.497Z,8.50
2019-02-27T01:18:32.955Z,10.80
2019-02-27T01:20:59.851Z,8.90
2019-02-27T01:23:26.806Z,9.87
2019-02-27T01:25:57.145Z,9.23
2019-02-27T01:28:23.753Z,8.93
2019-02-27T01:30:50.263Z,11.07
2019-02-27T01:33:18.863Z,8.83
2019-02-27T01:35:45.656Z,9.30
2019-02-27T01:38:12.150Z,11.20
2019-02-27T01:40:38.675Z,11.03
2019-02-27T01:43:06.277Z,9.23
2019-02-27T01:45:32.998Z,11.63
2019-02-27T01:47:59.533Z,8.90
2019-02-27T01:50:36.420Z,10.37
2019-02-27T01:53:07.026Z,11.17
2019-02-27T01:55:32.619Z,12.07
2019-02-27T01:57:59.124Z,11.57
2019-02-27T02:00:25.965Z,9.10
2019-02-27T02:03:00.000Z,15.50
2019-02-27T02:05:27.453Z,9.63
2019-02-27T02:07:54.193Z,9.97
2019-02-27T02:10:20.859Z,10.53
2019-02-27T02:12:53.539Z,11.80
2019-02-27T02:16:05.056Z,14.17
2019-02-27T02:19:09.485Z,10.23
2019-02-27T02:22:11.222Z,12.03
2019-02-27T02:24:54.833Z,9.27
2019-02-27T02:27:52.377Z,10.93
2019-02-27T02:31:05.382Z,11.03
2019-02-27T02:33:46.368Z,11.27
2019-02-27T02:36:47.987Z,9.83
2019-02-27T02:39:44.568Z,9.87
2019-02-27T02:42:25.493Z,9.73
2019-02-27T02:45:14.982Z,10.93
2019-02-27T02:48:31.245Z,10.07
2019-02-27T02:51:37.148Z,11.03
2019-02-27T02:54:52.605Z,10.50
2019-02-27T02:57:52.099Z,8.13
2019-02-27T03:00:59.100Z,13.00
2019-02-27T03:03:58.064Z,9.40
2019-02-27T03:06:59.563Z,8.70
2019-02-27T03:10:08.131Z,9.47
2019-02-27T03:13:08.144Z,10.33
2019-02-27T03:16:05.963Z,11.47
2019-02-27T03:18:55.433Z,8.93
2019-02-27T03:21:49.823Z,11.10
2019-02-27T03:25:16.698Z,8.20
2019-02-27T03:28:17.514Z,9.70
2019-02-27T03:31:21.439Z,9.03
2019-02-27T03:34:22.725Z,11.47
2019-02-27T03:37:35.719Z,8.70
2019-02-27T03:40:20.937Z,11.93
2019-02-27T03:43:35.435Z,11.87
2019-02-27T03:46:43.668Z,13.20
2019-02-27T03:50:07.148Z,11.70
2019-02-27T03:52:58.991Z,10.63
2019-02-27T03:55:54.401Z,8.80
2019-02-27T03:59:06.079Z,10.93
2019-02-27T04:02:05.854Z,11.40
2019-02-27T04:05:25.374Z,10.47
2019-02-27T04:08:30.062Z,9.87
2019-02-27T04:10:56.538Z,12.17
2019-02-27T04:13:26.824Z,10.83
2019-02-27T04:15:53.772Z,14.30
2019-02-27T04:18:27.513Z,9.53
2019-02-27T04:20:50.975Z,11.10
2019-02-27T04:23:17.908Z,8.40
2019-02-27T04:25:44.441Z,11.93
2019-02-27T04:28:14.850Z,12.60
2019-02-27T04:30:41.336Z,9.07
2019-02-27T04:33:08.230Z,9.67
2019-02-27T04:35:39.269Z,9.87
2019-02-27T04:38:03.471Z,12.37
2019-02-27T04:40:30.982Z,10.37
2019-02-27T04:42:59.296Z,11.10
2019-02-27T04:45:26.157Z,10.10
2019-02-27T04:47:52.666Z,10.53
2019-02-27T04:50:19.208Z,11.90
2019-02-27T04:52:46.736Z,10.33
2019-02-27T04:55:15.675Z,8.87
2019-02-27T04:57:41.790Z,13.50
2019-02-27T05:00:08.437Z,10.93
2019-02-27T05:02:35.033Z,7.97
2019-02-27T05:05:01.608Z,11.67
2019-02-27T05:07:28.141Z,12.20
2019-02-27T05:09:54.648Z,12.87
2019-02-27T05:12:21.164Z,11.87
2019-02-27T05:14:47.700Z,11.93
2019-02-27T05:17:14.665Z,9.33
2019-02-27T05:19:41.434Z,9.47
2019-02-27T05:22:07.944Z,19.07
2019-02-27T05:24:34.537Z,9.33
2019-02-27T05:27:01.737Z,10.97
2019-02-27T05:29:31.337Z,8.50
2019-02-27T05:31:57.907Z,11.97
2019-02-27T05:34:24.417Z,14.33
2019-02-27T05:36:50.872Z,8.57
2019-02-27T05:39:18.014Z,10.97
2019-02-27T05:41:44.972Z,11.57
2019-02-27T05:44:11.820Z,11.03
2019-02-27T05:46:39.239Z,9.50
2019-02-27T05:49:06.203Z,11.70
2019-02-27T05:51:32.798Z,12.80
2019-02-27T05:53:59.399Z,10.63
2019-02-27T05:56:26.000Z,11.23
2019-02-27T05:58:55.850Z,9.53
2019-02-27T06:01:22.406Z,13.20
2019-02-27T06:03:49.461Z,15.73
2019-02-27T06:06:17.457Z,12.00
2019-02-27T06:08:44.102Z,13.20
2019-02-27T06:11:10.723Z,11.40
2019-02-27T06:13:37.527Z,10.17
2019-02-27T06:16:08.339Z,19.23
2019-02-27T06:18:32.560Z,9.57
2019-02-27T06:20:59.473Z,9.90
2019-02-27T06:23:28.312Z,8.70
2019-02-27T06:25:59.075Z,11.33
2019-02-27T06:28:23.812Z,11.00
2019-02-27T06:30:50.741Z,10.47
2019-02-27T06:33:17.443Z,11.40
2019-02-27T06:35:43.992Z,13.23
2019-02-27T06:38:10.495Z,13.30
2019-02-27T06:40:37.031Z,12.87
2019-02-27T06:43:03.579Z,15.83
2019-02-27T06:45:30.611Z,17.20
2019-02-27T06:47:57.143Z,14.13
2019-02-27T06:50:25.519Z,21.93
2019-02-27T06:52:52.682Z,15.90
2019-02-27T06:55:19.525Z,13.20
2019-02-27T06:57:46.264Z,14.70
2019-02-27T07:00:15.331Z,16.03
2019-02-27T07:02:42.309Z,13.57
2019-02-27T07:05:13.259Z,14.53
2019-02-27T07:07:38.064Z,15.67
2019-02-27T07:10:05.102Z,13.07
2019-02-27T07:12:31.599Z,12.40
2019-02-27T07:14:58.131Z,13.30
2019-02-27T07:17:24.709Z,12.03
2019-02-27T07:19:52.257Z,12.83
2019-02-27T07:22:18.834Z,15.20
2019-02-27T07:24:45.347Z,16.73
2019-02-27T07:27:11.832Z,14.70
2019-02-27T07:29:38.467Z,12.20
2019-02-27T07:32:05.426Z,12.90
2019-02-27T07:34:32.084Z,13.03
2019-02-27T07:36:58.647Z,11.03
2019-02-27T07:39:25.396Z,12.90
2019-02-27T07:41:51.971Z,14.67
2019-02-27T07:44:18.615Z,14.70
2019-02-27T07:46:45.515Z,15.43
2019-02-27T07:49:12.105Z,16.40
2019-02-27T07:51:39.084Z,15.00
2019-02-27T07:54:05.906Z,18.67
2019-02-27T07:56:32.718Z,13.33
2019-02-27T07:58:59.915Z,12.37
2019-02-27T08:01:32.065Z,19.97
2019-02-27T08:04:05.299Z,15.83
2019-02-27T08:06:31.898Z,13.60
2019-02-27T08:08:58.536Z,14.40
2019-02-27T08:11:26.553Z,12.23
2019-02-27T08:13:53.353Z,13.97
2019-02-27T08:16:20.106Z,17.27
2019-02-27T08:18:46.765Z,15.30
2019-02-27T08:21:13.454Z,10.27
2019-02-27T08:23:42.599Z,11.73
2019-02-27T08:26:11.358Z,12.23
2019-02-27T08:28:38.231Z,10.57
2019-02-27T08:31:05.190Z,14.17
2019-02-27T08:33:31.970Z,12.97
2019-02-27T08:35:58.456Z,12.40
2019-02-27T08:38:25.685Z,13.37
2019-02-27T08:40:57.209Z,16.67
2019-02-27T08:43:21.297Z,13.53
2019-02-27T08:45:47.913Z,14.83
2019-02-27T08:48:17.525Z,13.23
2019-02-27T08:50:43.681Z,11.47
2019-02-27T08:53:14.155Z,14.40
2019-02-27T08:55:41.405Z,13.60
2019-02-27T08:58:08.137Z,13.83
2019-02-27T09:00:47.439Z,11.07
2019-02-27T09:03:22.787Z,12.67
2019-02-27T09:05:51.026Z,11.33
2019-02-27T09:08:18.471Z,12.90
2019-02-27T09:10:45.664Z,14.00
2019-02-27T09:13:12.398Z,12.63
2019-02-27T09:15:41.564Z,14.97
2019-02-27T09:18:10.036Z,15.03
2019-02-27T09:20:36.645Z,15.23
2019-02-27T09:23:04.570Z,12.97
2019-02-27T09:25:31.228Z,16.90
2019-02-27T09:27:57.931Z,15.50
2019-02-27T09:30:28.805Z,14.23
2019-02-27T09:32:53.812Z,14.40
2019-02-27T09:35:20.750Z,12.73
2019-02-27T09:37:51.429Z,14.40
2019-02-27T09:40:17.689Z,13.90
2019-02-27T09:42:44.230Z,17.40
2019-02-27T09:45:25.206Z,16.13
2019-02-27T09:47:51.878Z,13.83
2019-02-27T09:50:32.660Z,12.17
2019-02-27T09:53:01.145Z,15.20
2019-02-27T09:55:28.251Z,12.83
2019-02-27T09:57:54.904Z,16.77
2019-02-27T10:00:35.283Z,11.70
2019-02-27T10:03:01.920Z,13.03
2019-02-27T10:05:28.703Z,14.97
2019-02-27T10:07:57.488Z,13.97
2019-02-27T10:10:24.413Z,15.30
2019-02-27T10:12:51.066Z,14.93
2019-02-27T10:15:17.547Z,12.30
2019-02-27T10:17:44.274Z,12.07
2019-02-27T10:20:11.414Z,15.00
2019-02-27T10:22:38.069Z,19.00
2019-02-27T10:25:04.713Z,13.67
2019-02-27T10:27:31.279Z,13.90
2019-02-27T10:29:57.832Z,11.97
2019-02-27T10:32:24.432Z,13.70
2019-02-27T10:34:53.517Z,17.90
2019-02-27T10:37:20.248Z,14.17
2019-02-27T10:39:47.482Z,16.20
2019-02-27T10:42:14.219Z,16.87
2019-02-27T10:44:41.093Z,16.27
2019-02-27T10:47:08.730Z,14.33
2019-02-27T10:49:35.703Z,14.53
2019-02-27T10:52:06.278Z,16.53
2019-02-27T10:54:33.395Z,11.87
2019-02-27T10:57:00.028Z,14.80
2019-02-27T10:59:26.769Z,14.23
2019-02-27T11:01:53.386Z,12.97
2019-02-27T11:04:20.715Z,12.67
2019-02-27T11:06:56.604Z,12.80
2019-02-27T11:09:25.711Z,10.17
2019-02-27T11:11:53.901Z,9.77
2019-02-27T11:14:21.695Z,10.07
2019-02-27T11:16:48.184Z,11.77
2019-02-27T11:19:16.620Z,14.77
2019-02-27T11:21:45.209Z,12.80
2019-02-27T11:24:14.475Z,14.20
2019-02-27T11:26:40.954Z,12.90
2019-02-27T11:29:07.675Z,9.07
2019-02-27T11:31:36.968Z,14.03
2019-02-27T11:34:12.423Z,8.20
2019-02-27T11:36:39.667Z,8.70
2019-02-27T11:39:08.313Z,9.10
2019-02-27T11:41:34.924Z,11.13
2019-02-27T11:44:02.919Z,12.30
2019-02-27T11:46:29.561Z,9.07
2019-02-27T11:48:57.053Z,9.10
2019-02-27T11:51:29.636Z,13.33
2019-02-27T11:53:56.101Z,8.90
2019-02-27T11:56:22.636Z,11.57
2019-02-27T11:58:49.285Z,9.63
2019-02-27T12:01:16.166Z,12.73
2019-02-27T12:03:45.747Z,9.43
2019-02-27T12:06:12.188Z,7.07
2019-02-27T12:08:39.038Z,12.00
2019-02-27T12:11:05.554Z,8.67
2019-02-27T12:13:32.364Z,9.63
2019-02-27T12:16:00.667Z,9.23
2019-02-27T12:18:27.345Z,7.83
2019-02-27T12:20:54.146Z,10.17
2019-02-27T12:23:21.888Z,7.13
2019-02-27T12:25:48.620Z,10.13
2019-02-27T12:28:18.124Z,14.30
2019-02-27T12:30:44.076Z,8.03
2019-02-27T12:33:10.750Z,6.70
2019-02-27T12:35:37.280Z,7.03
2019-02-27T12:38:08.075Z,6.50
2019-02-27T12:40:33.513Z,7.17
2019-02-27T12:43:00.421Z,6.57
2019-02-27T12:45:29.574Z,5.07
2019-02-27T12:47:55.697Z,8.13
2019-02-27T12:50:22.441Z,4.43
2019-02-27T12:52:49.361Z,5.23
2019-02-27T12:55:16.770Z,5.70
2019-02-27T12:57:43.393Z,3.83
2019-02-27T13:00:12.467Z,6.57
2019-02-27T13:02:39.145Z,5.50
2019-02-27T13:05:07.326Z,5.90
2019-02-27T13:07:33.884Z,4.97
2019-02-27T13:10:00.702Z,4.67
2019-02-27T13:12:27.296Z,6.50
2019-02-27T13:14:54.019Z,6.80
2019-02-27T13:17:21.475Z,8.50
2019-02-27T13:19:48.790Z,7.83
2019-02-27T13:22:15.320Z,4.60
2019-02-27T13:24:42.113Z,4.47
2019-02-27T13:27:09.837Z,5.20
2019-02-27T13:29:36.491Z,7.47
2019-02-27T13:32:03.377Z,4.90
2019-02-27T13:34:29.913Z,6.17
2019-02-27T13:36:56.367Z,4.70
2019-02-27T13:39:25.587Z,4.47
2019-02-27T13:41:51.684Z,6.47
2019-02-27T13:44:18.222Z,5.47
2019-02-27T13:46:44.712Z,5.90
2019-02-27T13:49:14.055Z,8.67
2019-02-27T13:51:41.222Z,4.50
2019-02-27T13:54:08.204Z,6.47
2019-02-27T13:56:34.832Z,5.13
2019-02-27T13:59:01.341Z,5.87
2019-02-27T14:01:28.519Z,7.53
2019-02-27T14:03:55.856Z,6.00
2019-02-27T14:06:22.605Z,7.67
2019-02-27T14:08:49.186Z,6.43
2019-02-27T14:11:16.596Z,7.40
2019-02-27T14:13:44.820Z,4.93
2019-02-27T14:16:17.486Z,6.10
2019-02-27T14:18:44.437Z,6.23
2019-02-27T14:21:11.022Z,7.83
2019-02-27T14:23:37.572Z,7.40
2019-02-27T14:26:06.709Z,9.43
2019-02-27T14:28:32.605Z,9.73
2019-02-27T14:30:59.313Z,7.80
2019-02-27T14:33:26.329Z,7.53
2019-02-27T14:35:52.885Z,7.10
2019-02-27T14:38:21.901Z,7.40
2019-02-27T14:40:48.489Z,9.40
2019-02-27T14:43:15.215Z,6.37
2019-02-27T14:45:41.918Z,8.13
2019-02-27T14:48:08.775Z,7.20
2019-02-27T14:50:35.432Z,10.00
2019-02-27T14:53:02.616Z,6.67
2019-02-27T14:55:29.351Z,9.03
2019-02-27T14:57:56.117Z,8.73
2019-02-27T15:00:24.795Z,8.23
2019-02-27T15:02:52.242Z,7.57
2019-02-27T15:05:18.746Z,10.63
2019-02-27T15:07:45.398Z,6.77
2019-02-27T15:10:12.907Z,8.97
2019-02-27T15:12:39.461Z,9.17
2019-02-27T15:15:09.493Z,9.23
2019-02-27T15:17:36.813Z,8.03
2019-02-27T15:20:05.799Z,8.20
2019-02-27T15:22:32.615Z,9.20
2019-02-27T15:24:59.392Z,5.73
2019-02-27T15:27:25.954Z,8.93
2019-02-27T15:29:52.480Z,7.30
2019-02-27T15:32:18.954Z,8.40
2019-02-27T15:34:45.932Z,8.07
2019-02-27T15:37:13.659Z,10.57
2019-02-27T15:39:40.605Z,6.93
2019-02-27T15:42:09.531Z,9.20
2019-02-27T15:44:36.057Z,5.87
2019-02-27T15:47:02.821Z,9.37
2019-02-27T15:49:30.510Z,5.23
2019-02-27T15:51:58.554Z,11.30
2019-02-27T15:54:25.433Z,8.17
2019-02-27T15:56:52.183Z,6.50
2019-02-27T15:59:18.850Z,8.13
2019-02-27T16:01:45.608Z,8.20
2019-02-27T16:04:12.244Z,11.63
2019-02-27T16:06:39.723Z,8.77
2019-02-27T16:09:08.443Z,6.30
2019-02-27T16:11:35.545Z,5.63
2019-02-27T16:14:02.514Z,7.07
2019-02-27T16:16:29.646Z,6.73
2019-02-27T16:18:56.176Z,6.60
2019-02-27T16:21:23.718Z,13.27
2019-02-27T16:23:51.166Z,5.37
2019-02-27T16:26:17.671Z,11.93
2019-02-27T16:28:46.160Z,7.27
2019-02-27T16:31:12.675Z,8.90
2019-02-27T16:33:39.184Z,7.63
2019-02-27T16:36:06.130Z,7.43
2019-02-27T16:38:32.652Z,12.20
2019-02-27T16:40:59.546Z,7.83
2019-02-27T16:43:26.180Z,10.70
2019-02-27T16:45:53.094Z,10.13
2019-02-27T16:48:19.686Z,8.37
2019-02-27T16:50:48.152Z,7.80
2019-02-27T16:53:18.434Z,9.90
2019-02-27T16:55:43.207Z,11.67
2019-02-27T16:58:09.792Z,6.37
2019-02-27T17:00:38.414Z,5.77
2019-02-27T17:03:05.056Z,6.80
2019-02-27T17:05:31.946Z,6.00
2019-02-27T17:08:02.229Z,3.57
2019-02-27T17:10:29.403Z,4.57
2019-02-27T17:12:56.382Z,5.57
2019-02-27T17:15:23.108Z,5.83
2019-02-27T17:17:50.609Z,5.80
2019-02-27T17:20:18.141Z,6.60
2019-02-27T17:22:49.087Z,7.23
2019-02-27T17:25:15.565Z,9.63
2019-02-27T17:27:42.222Z,6.40
2019-02-27T17:30:14.817Z,8.67
2019-02-27T17:32:41.337Z,6.07
2019-02-27T17:35:08.058Z,6.33
2019-02-27T17:37:37.386Z,7.37
2019-02-27T17:40:03.665Z,5.93
2019-02-27T17:42:30.076Z,5.13
2019-02-27T17:44:56.897Z,5.40
2019-02-27T17:47:28.592Z,9.93
2019-02-27T17:49:51.912Z,6.23
2019-02-27T17:52:19.278Z,8.00
2019-02-27T17:54:45.759Z,4.60
2019-02-27T17:57:12.275Z,5.60
2019-02-27T17:59:42.190Z,5.40
2019-02-27T18:02:07.879Z,7.87
2019-02-27T18:04:34.857Z,6.50
2019-02-27T18:07:01.373Z,5.17
2019-02-27T18:09:36.932Z,8.03
2019-02-27T18:12:03.517Z,5.63
2019-02-27T18:14:47.955Z,7.03
2019-02-27T18:17:14.795Z,11.93
2019-02-27T18:19:41.257Z,6.27
2019-02-27T18:22:07.780Z,5.87
2019-02-27T18:24:34.448Z,6.17
2019-02-27T18:27:00.932Z,7.63
2019-02-27T18:29:27.432Z,8.57
2019-02-27T18:31:53.943Z,7.93
2019-02-27T18:34:21.658Z,8.67
2019-02-27T18:36:51.242Z,5.17
2019-02-27T18:39:17.923Z,15.00
2019-02-27T18:41:45.736Z,5.77
2019-02-27T18:44:12.887Z,5.47
2019-02-27T18:46:41.161Z,5.73
2019-02-27T18:49:07.633Z,5.27
2019-02-27T18:51:34.128Z,6.10
2019-02-27T18:54:02.256Z,5.53
2019-02-27T18:56:28.826Z,6.20
2019-02-27T18:58:56.334Z,8.37
2019-02-27T19:01:22.956Z,7.20
2019-02-27T19:03:49.484Z,9.20
2019-02-27T19:06:17.969Z,8.60
2019-02-27T19:08:49.020Z,7.00
2019-02-27T19:11:16.680Z,6.93
2019-02-27T19:13:43.494Z,7.07
2019-02-27T19:16:10.007Z,7.73
2019-02-27T19:18:38.507Z,5.17
2019-02-27T19:21:06.246Z,8.23
2019-02-27T19:23:33.202Z,6.77
2019-02-27T19:26:09.276Z,5.36
2019-02-27T19:28:36.348Z,6.60
2019-02-27T19:31:16.652Z,8.50
2019-02-27T19:33:42.521Z,7.20
2019-02-27T19:36:18.658Z,7.30
2019-02-27T19:38:38.324Z,7.17
2019-02-27T19:41:05.200Z,5.87
2019-02-27T19:43:32.016Z,7.50
2019-02-27T19:45:58.674Z,7.30
2019-02-27T19:48:26.307Z,7.83
2019-02-27T19:50:53.834Z,7.97
2019-02-27T19:53:20.449Z,8.70
2019-02-27T19:55:47.052Z,10.73
2019-02-27T19:58:17.007Z,6.97
2019-02-27T20:00:48.349Z,11.40
2019-02-27T20:03:11.140Z,9.07
2019-02-27T20:05:38.214Z,8.47
2019-02-27T20:08:10.799Z,8.23
2019-02-27T20:10:37.844Z,8.23
2019-02-27T20:13:04.455Z,8.63
2019-02-27T20:15:33.220Z,9.40
2019-02-27T20:17:59.724Z,10.50
2019-02-27T20:20:26.596Z,7.93
2019-02-27T20:22:54.717Z,10.63
2019-02-27T20:25:21.796Z,8.83
2019-02-27T20:27:49.358Z,8.27
2019-02-27T20:30:16.638Z,8.00
2019-02-27T20:32:43.330Z,7.00
2019-02-27T20:35:10.074Z,8.13
2019-02-27T20:37:37.171Z,6.97
2019-02-27T20:40:05.831Z,9.70
2019-02-27T20:42:32.755Z,7.93
2019-02-27T20:44:59.571Z,7.47
2019-02-27T20:47:26.336Z,10.47
2019-02-27T20:49:52.963Z,9.60
2019-02-27T20:52:20.317Z,8.43
2019-02-27T20:54:46.891Z,10.53
2019-02-27T20:57:13.721Z,7.00
2019-02-27T20:59:40.540Z,8.30
2019-02-27T21:02:07.210Z,6.67
2019-02-27T21:04:35.293Z,5.93
2019-02-27T21:07:03.779Z,7.30
2019-02-27T21:09:30.586Z,9.03
2019-02-27T21:11:57.123Z,6.57
2019-02-27T21:14:24.249Z,10.63
2019-02-27T21:16:50.829Z,6.77
2019-02-27T21:19:17.572Z,9.17
2019-02-27T21:21:45.187Z,6.17
2019-02-27T21:24:11.855Z,5.97
2019-02-27T21:26:41.590Z,7.40
2019-02-27T21:29:08.640Z,6.40
2019-02-27T21:31:36.223Z,10.10
2019-02-27T21:34:03.802Z,6.97
2019-02-27T21:36:30.653Z,7.10
2019-02-27T21:38:57.136Z,7.70
2019-02-27T21:41:27.333Z,5.17
2019-02-27T21:43:56.632Z,6.53
2019-02-27T21:46:23.691Z,7.13
2019-02-27T21:48:50.813Z,7.30
2019-02-27T21:51:17.429Z,6.67
2019-02-27T21:53:44.218Z,9.50
2019-02-27T21:56:10.665Z,7.20
2019-02-27T21:58:38.287Z,7.43
2019-02-27T22:01:04.890Z,5.40
2019-02-27T22:03:31.544Z,5.30
2019-02-27T22:05:58.203Z,5.97
2019-02-27T22:08:25.240Z,6.47
2019-02-27T22:10:53.539Z,5.20
2019-02-27T22:13:28.889Z,5.63
2019-02-27T22:15:49.552Z,7.60
2019-02-27T22:18:16.353Z,5.57
2019-02-27T22:20:42.839Z,8.20
2019-02-27T22:23:12.662Z,5.03
2019-02-27T22:25:37.769Z,6.77
2019-02-27T22:28:04.293Z,6.37
2019-02-27T22:30:31.777Z,7.63
2019-02-27T22:32:59.124Z,6.30
2019-02-27T22:35:25.958Z,5.27
2019-02-27T22:37:52.933Z,5.20
2019-02-27T22:40:19.904Z,5.00
2019-02-27T22:42:48.426Z,5.50
2019-02-27T22:45:16.046Z,5.67
2019-02-27T22:47:42.622Z,4.40
2019-02-27T22:50:10.750Z,5.83
2019-02-27T22:52:37.327Z,4.40
2019-02-27T22:55:07.276Z,5.80
2019-02-27T22:57:34.690Z,4.07
2019-02-27T23:00:01.566Z,4.40
2019-02-27T23:02:30.229Z,4.23
2019-02-27T23:04:56.666Z,3.67
2019-02-27T23:07:23.155Z,6.10
2019-02-27T23:09:49.954Z,5.83
2019-02-27T23:12:16.921Z,6.27
2019-02-27T23:14:43.425Z,4.13
2019-02-27T23:17:10.135Z,4.67
2019-02-27T23:19:36.646Z,4.27
2019-02-27T23:22:03.240Z,5.20
2019-02-27T23:24:29.750Z,6.97
2019-02-27T23:26:56.263Z,6.13
2019-02-27T23:29:23.353Z,4.37
2019-02-27T23:31:49.889Z,5.50
2019-02-27T23:34:16.365Z,5.20
2019-02-27T23:36:48.040Z,4.57
2019-02-27T23:39:14.858Z,3.83
2019-02-27T23:41:41.373Z,4.63
2019-02-27T23:44:07.998Z,3.53
2019-02-27T23:46:34.454Z,4.83
2019-02-27T23:49:01.156Z,5.03
2019-02-27T23:51:27.660Z,3.83
2019-02-27T23:53:54.487Z,3.00
2019-02-27T23:56:21.011Z,4.37
2019-02-27T23:58:47.642Z,6.40
